KDAB/DAB METAR and TAF weather

Enter ICAO airport designator
Station Type Date Time Source
KDAB METAR 2019/02/21 11:53 UTC NOAA

KDAB 211153Z 00000KT 1/2SM FG SCT005 18/18 A3013 RMK AO2 SLP202 T01780178 10217 20172 53013 RVRNO


Station Type Date Time Source
KDAB Decoded METAR 2019/02/21 11:53 UTC NOAA

DAYTONA BEACH INTERNATIONAL, FL, United States (KDAB) 29-10N 81-04W 9M
Feb 21, 2019 - 06:53 AM EST / 2019.02.21 1153 UTC
Wind: Calm:0
Visibility: 1/2 mile(s):0
Sky conditions: partly cloudy
Weather: fog
Temperature: 64.0 F (17.8 C)
Dew Point: 64.0 F (17.8 C)
Relative Humidity: 100%
Pressure (altimeter): 30.13 in. Hg (1020 hPa)
Pressure tendency: 0.04 inches (1.3 hPa) higher than three hours ago
ob: KDAB 211153Z 00000KT 1/2SM FG SCT005 18/18 A3013 RMK AO2 SLP202 T01780178 10217 20172 53013 RVRNO
cycle: 12

Station Type Date Time Source
KDAB TAF 2019/02/21 12:24 UTC NOAA

TAF KDAB 211120Z 2112/2212 00000KT 4SM MIFG BR FEW008
TEMPO 2112/2113 1SM MIFG BR SCT008
FM211300 17007KT P6SM SCT025
FM211800 14009KT P6SM SCT045
FM220000 18003KT P6SM FEW050


Example: see airport list